Time;durP1;ratioP1;P1;durP2;ratioP2;P2;SDS_P1;SDS_P2;PMS_P1;PMS_P2;Temp;Humidity;BMP_temperature;BMP_pressure;BME280_temperature;BME280_humidity;BME280_pressure;Samples;Min_cycle;Max_cycle;Signal;HPM_P1;HPM_P2
2021/12/28 00:00:58;;;;;;;;;;;11.60;97.70;;;;;;5017541;28;20035;-88
2021/12/28 00:03:25;;;;;;;;;;;11.60;97.70;;;;;;5035007;28;20373;-89
2021/12/28 00:05:52;;;;;;;;;;;11.60;97.70;;;;;;5028550;28;19923;-89
2021/12/28 00:08:19;;;;;;;;;;;11.60;97.70;;;;;;5027566;28;20207;-91
2021/12/28 00:10:47;;;;;;;;;;;11.70;97.80;;;;;;5025777;28;19927;-88
2021/12/28 00:13:16;;;;;;;;;;;11.70;97.80;;;;;;5037878;28;20535;-89
2021/12/28 00:15:49;;;;;;;;;;;11.70;97.90;;;;;;5023016;28;19913;-88
2021/12/28 00:18:16;;;;;;;;;;;11.80;97.90;;;;;;5033531;28;19919;-88
2021/12/28 00:20:46;;;;;;;;;;;11.80;97.90;;;;;;5028050;28;19923;-90
2021/12/28 00:23:14;;;;;;;;;;;11.80;97.90;;;;;;5023574;28;19939;-89
2021/12/28 00:25:41;;;;;;;;;;;11.80;97.90;;;;;;5026546;28;19932;-88
2021/12/28 00:28:08;;;;;;;;;;;11.90;97.90;;;;;;5034546;28;20094;-90
2021/12/28 00:30:36;;;;;;;;;;;11.90;97.90;;;;;;5026400;28;19943;-89
2021/12/28 00:33:04;;;;;;;;;;;11.90;97.90;;;;;;5012505;28;19917;-88
2021/12/28 00:35:33;;;;;;;;;;;11.90;97.90;;;;;;5028798;28;20233;-89
2021/12/28 00:38:00;;;;;;;;;;;12.00;97.90;;;;;;5028765;28;19912;-91
2021/12/28 00:40:27;;;;;;;;;;;12.00;97.90;;;;;;5027103;28;19913;-89
2021/12/28 00:42:54;;;;;;;;;;;12.00;97.90;;;;;;5034054;28;19931;-90
2021/12/28 00:45:21;;;;;;;;;;;12.10;98.00;;;;;;5034075;28;20289;-92
2021/12/28 00:47:48;;;;;;;;;;;12.10;98.10;;;;;;5024429;28;20317;-89
2021/12/28 00:50:16;;;;;;;;;;;12.10;98.10;;;;;;5027826;28;19939;-88
2021/12/28 00:52:43;;;;;;;;;;;12.10;98.10;;;;;;5029127;28;20396;-90
2021/12/28 00:55:10;;;;;;;;;;;12.20;98.10;;;;;;5026813;28;19939;-89
2021/12/28 00:57:37;;;;;;;;;;;12.20;98.10;;;;;;5025498;28;19923;-89
2021/12/28 01:00:06;;;;;;;;;;;12.20;98.00;;;;;;5034697;28;19912;-89
2021/12/28 01:02:32;;;;;;;;;;;12.20;98.00;;;;;;5020960;28;19917;-89
2021/12/28 01:05:00;;;;;;;;;;;12.20;98.00;;;;;;5029043;28;20014;-88
2021/12/28 01:07:26;;;;;;;;;;;12.20;98.00;;;;;;5028981;28;19913;-88
2021/12/28 01:09:53;;;;;;;;;;;12.30;98.10;;;;;;5049722;28;19913;-89
2021/12/28 01:12:20;;;;;;;;;;;12.30;98.10;;;;;;5039663;28;19916;-88
2021/12/28 01:14:47;;;;;;;;;;;12.30;98.10;;;;;;5026166;28;20409;-88
2021/12/28 01:17:14;;;;;;;;;;;12.30;98.10;;;;;;5035388;28;19917;-89
2021/12/28 01:19:42;;;;;;;;;;;12.40;98.10;;;;;;5016724;28;19913;-89
2021/12/28 01:22:09;;;;;;;;;;;12.40;98.00;;;;;;5025276;28;19921;-91
2021/12/28 01:24:35;;;;;;;;;;;12.40;98.10;;;;;;5032808;28;20400;-90
2021/12/28 01:27:02;;;;;;;;;;;12.40;98.10;;;;;;5022046;28;19919;-88
2021/12/28 01:29:29;;;;;;;;;;;12.40;98.10;;;;;;5028262;28;19913;-88
2021/12/28 01:31:56;;;;;;;;;;;12.50;98.10;;;;;;5036570;28;20204;-89
2021/12/28 01:34:23;;;;;;;;;;;12.50;98.10;;;;;;5024363;28;19921;-89
2021/12/28 01:36:50;;;;;;;;;;;12.50;98.10;;;;;;5026518;28;20120;-88
2021/12/28 01:39:17;;;;;;;;;;;12.50;98.00;;;;;;5012704;28;19913;-88
2021/12/28 01:41:44;;;;;;;;;;;12.50;97.90;;;;;;5023259;28;19962;-88
2021/12/28 01:44:11;;;;;;;;;;;12.50;97.90;;;;;;5035241;28;19925;-88
2021/12/28 01:46:38;;;;;;;;;;;12.50;97.90;;;;;;5025293;28;19913;-89
2021/12/28 01:49:07;;;;;;;;;;;12.50;97.90;;;;;;5039877;28;19913;-92
2021/12/28 01:51:34;;;;;;;;;;;12.50;97.80;;;;;;5020482;28;19913;-89
2021/12/28 01:54:01;;;;;;;;;;;12.50;97.80;;;;;;5030306;28;20267;-91
2021/12/28 01:56:34;;;;;;;;;;;12.50;97.80;;;;;;5032269;28;19920;-90
2021/12/28 01:59:01;;;;;;;;;;;12.50;97.80;;;;;;5035151;28;19912;-88
2021/12/28 02:01:28;;;;;;;;;;;12.40;97.80;;;;;;5048581;28;19913;-88
2021/12/28 02:03:55;;;;;;;;;;;12.40;97.80;;;;;;5038949;28;20010;-88
2021/12/28 02:06:25;;;;;;;;;;;12.40;97.80;;;;;;5023312;28;20389;-88
2021/12/28 02:08:52;;;;;;;;;;;12.40;97.80;;;;;;5046363;28;19921;-88
2021/12/28 02:11:20;;;;;;;;;;;12.40;97.70;;;;;;5040577;28;19909;-91
2021/12/28 02:13:47;;;;;;;;;;;12.40;97.70;;;;;;5028210;28;19912;-88
2021/12/28 02:16:14;;;;;;;;;;;12.40;97.70;;;;;;5032136;28;19917;-88
2021/12/28 02:18:41;;;;;;;;;;;12.40;97.70;;;;;;5036032;28;19917;-89
2021/12/28 02:21:08;;;;;;;;;;;12.40;97.70;;;;;;5028854;28;19913;-88
2021/12/28 02:23:35;;;;;;;;;;;12.40;97.70;;;;;;5026933;28;20377;-91
2021/12/28 02:26:03;;;;;;;;;;;12.40;97.60;;;;;;5032327;28;20309;-88
2021/12/28 02:28:30;;;;;;;;;;;12.40;97.70;;;;;;5038378;28;19920;-89
2021/12/28 02:30:57;;;;;;;;;;;12.40;97.60;;;;;;5034309;28;19913;-88
2021/12/28 02:33:25;;;;;;;;;;;12.30;97.60;;;;;;5039848;28;19917;-88
2021/12/28 02:35:53;;;;;;;;;;;12.30;97.60;;;;;;5022428;28;20635;-90
2021/12/28 02:38:20;;;;;;;;;;;12.30;97.60;;;;;;5055510;28;19917;-88
2021/12/28 02:40:47;;;;;;;;;;;12.30;97.50;;;;;;5028237;28;20551;-88
2021/12/28 02:43:15;;;;;;;;;;;12.30;97.50;;;;;;5033971;28;19912;-89
2021/12/28 02:45:48;;;;;;;;;;;12.30;97.50;;;;;;5023505;28;19942;-89
2021/12/28 02:48:15;;;;;;;;;;;12.30;97.50;;;;;;5036989;28;20443;-89
2021/12/28 02:50:43;;;;;;;;;;;12.20;97.50;;;;;;5026411;28;20185;-91
2021/12/28 02:53:10;;;;;;;;;;;12.30;97.50;;;;;;5028425;28;19920;-89
2021/12/28 02:55:38;;;;;;;;;;;12.20;97.50;;;;;;5035491;28;19913;-89
2021/12/28 02:58:07;;;;;;;;;;;12.20;97.50;;;;;;5032684;28;19919;-90
2021/12/28 03:00:39;;;;;;;;;;;12.30;97.60;;;;;;5020489;28;20043;-88
2021/12/28 03:03:11;;;;;;;;;;;12.20;97.60;;;;;;5036934;28;19927;-88
2021/12/28 03:05:39;;;;;;;;;;;12.30;97.60;;;;;;5033740;28;19925;-89
2021/12/28 03:08:06;;;;;;;;;;;12.30;97.70;;;;;;5036811;28;19927;-89
2021/12/28 03:10:34;;;;;;;;;;;12.30;97.60;;;;;;5035773;28;19920;-89
2021/12/28 03:13:00;;;;;;;;;;;12.30;97.70;;;;;;5030736;28;19921;-88
2021/12/28 03:15:27;;;;;;;;;;;12.30;97.70;;;;;;5029649;28;19919;-88
2021/12/28 03:17:54;;;;;;;;;;;12.30;97.70;;;;;;5033508;28;19912;-88
2021/12/28 03:20:21;;;;;;;;;;;12.30;97.70;;;;;;5049766;28;19913;-88
2021/12/28 03:22:48;;;;;;;;;;;12.40;97.70;;;;;;5020869;28;20208;-89
2021/12/28 03:25:15;;;;;;;;;;;12.30;97.60;;;;;;5034659;28;19917;-88
2021/12/28 03:27:42;;;;;;;;;;;12.30;97.60;;;;;;5035940;28;20018;-88
2021/12/28 03:30:11;;;;;;;;;;;12.30;97.50;;;;;;5024658;28;19916;-88
2021/12/28 03:32:38;;;;;;;;;;;12.40;97.60;;;;;;5045279;28;19917;-89
2021/12/28 03:35:06;;;;;;;;;;;12.40;97.60;;;;;;5025593;28;20199;-88
2021/12/28 03:37:33;;;;;;;;;;;12.40;97.90;;;;;;5035907;28;19916;-88
2021/12/28 03:40:01;;;;;;;;;;;12.40;97.60;;;;;;5027573;28;19913;-89
2021/12/28 03:42:28;;;;;;;;;;;12.40;97.70;;;;;;5037812;28;19913;-91
2021/12/28 03:44:55;;;;;;;;;;;12.40;97.60;;;;;;5028256;28;19916;-89
2021/12/28 03:47:21;;;;;;;;;;;12.40;97.60;;;;;;5027355;28;19948;-88
2021/12/28 03:49:48;;;;;;;;;;;12.40;97.60;;;;;;5032425;28;20244;-88
2021/12/28 03:52:15;;;;;;;;;;;12.40;97.60;;;;;;5047670;28;20354;-88
2021/12/28 03:54:42;;;;;;;;;;;12.40;97.60;;;;;;5024169;28;20007;-88
2021/12/28 03:57:09;;;;;;;;;;;12.40;97.60;;;;;;5029655;28;19909;-89
2021/12/28 03:59:36;;;;;;;;;;;12.30;97.60;;;;;;5026685;28;19919;-89
2021/12/28 04:02:03;;;;;;;;;;;12.30;97.60;;;;;;5022966;28;19912;-88
2021/12/28 04:04:30;;;;;;;;;;;12.40;97.60;;;;;;5030836;28;20278;-88
2021/12/28 04:06:57;;;;;;;;;;;12.40;97.70;;;;;;5037370;28;20569;-89
2021/12/28 04:09:46;;;;;;;;;;;12.40;97.60;;;;;;5029772;28;19927;-90
2021/12/28 04:12:10;;;;;;;;;;;12.40;97.70;;;;;;5027079;28;19916;-90
2021/12/28 04:14:37;;;;;;;;;;;12.40;97.70;;;;;;5023506;28;20218;-88
2021/12/28 04:17:04;;;;;;;;;;;12.40;97.70;;;;;;5028125;28;19927;-89
2021/12/28 04:19:31;;;;;;;;;;;12.40;97.70;;;;;;5032593;28;19913;-88
2021/12/28 04:21:57;;;;;;;;;;;12.40;97.70;;;;;;5029435;28;20205;-90
2021/12/28 04:24:24;;;;;;;;;;;12.50;97.70;;;;;;5022365;28;19923;-88
2021/12/28 04:26:51;;;;;;;;;;;12.50;97.70;;;;;;5016654;28;20050;-90
2021/12/28 04:29:18;;;;;;;;;;;12.50;97.70;;;;;;5022825;28;20382;-88
2021/12/28 04:31:45;;;;;;;;;;;12.50;97.70;;;;;;5025799;28;19921;-87
2021/12/28 04:34:12;;;;;;;;;;;12.50;97.70;;;;;;5029682;28;19920;-88
2021/12/28 04:36:39;;;;;;;;;;;12.50;97.70;;;;;;5035965;28;19920;-88
2021/12/28 04:39:06;;;;;;;;;;;12.50;97.60;;;;;;5035656;28;19923;-88
2021/12/28 04:41:34;;;;;;;;;;;12.50;97.60;;;;;;5041134;28;19927;-89
2021/12/28 04:44:01;;;;;;;;;;;12.50;97.60;;;;;;5049769;28;19913;-88
2021/12/28 04:46:29;;;;;;;;;;;12.50;97.60;;;;;;5017843;28;19921;-88
2021/12/28 04:48:56;;;;;;;;;;;12.50;97.50;;;;;;5029734;28;19942;-88
2021/12/28 04:51:24;;;;;;;;;;;12.50;97.60;;;;;;5033999;28;20279;-88
2021/12/28 04:53:53;;;;;;;;;;;12.60;97.60;;;;;;5034698;28;20396;-88
2021/12/28 04:56:21;;;;;;;;;;;12.50;97.50;;;;;;5040391;28;19931;-89
2021/12/28 04:58:48;;;;;;;;;;;12.50;97.60;;;;;;5023987;28;19923;-88
2021/12/28 05:01:15;;;;;;;;;;;12.50;97.50;;;;;;5026460;28;20432;-88
2021/12/28 05:03:42;;;;;;;;;;;12.50;97.50;;;;;;5025948;28;20113;-88
2021/12/28 05:06:09;;;;;;;;;;;12.50;97.50;;;;;;5032633;28;19925;-88
2021/12/28 05:08:39;;;;;;;;;;;12.50;97.50;;;;;;5018487;28;20384;-88
2021/12/28 05:11:06;;;;;;;;;;;12.50;97.50;;;;;;5034524;28;19916;-89
2021/12/28 05:13:33;;;;;;;;;;;12.50;97.50;;;;;;5023479;28;19920;-88
2021/12/28 05:15:59;;;;;;;;;;;12.50;97.50;;;;;;5026401;28;20102;-87
2021/12/28 05:18:26;;;;;;;;;;;12.50;97.40;;;;;;5028026;28;19912;-88
2021/12/28 05:20:53;;;;;;;;;;;12.50;97.50;;;;;;5034202;28;20098;-88
2021/12/28 05:23:20;;;;;;;;;;;12.50;97.40;;;;;;5026693;28;20405;-88
2021/12/28 05:25:47;;;;;;;;;;;12.50;97.40;;;;;;5030304;28;20480;-88
2021/12/28 05:28:14;;;;;;;;;;;12.50;97.40;;;;;;5027895;28;19919;-88
2021/12/28 05:30:41;;;;;;;;;;;12.50;97.40;;;;;;5030678;28;19913;-89
2021/12/28 05:33:07;;;;;;;;;;;12.50;97.40;;;;;;5028044;28;19917;-88
2021/12/28 05:35:36;;;;;;;;;;;12.50;97.50;;;;;;5021079;28;20202;-87
2021/12/28 05:38:03;;;;;;;;;;;12.50;97.40;;;;;;5042640;28;20250;-88
2021/12/28 05:40:30;;;;;;;;;;;12.50;97.40;;;;;;5036117;28;19921;-88
2021/12/28 05:42:57;;;;;;;;;;;12.50;97.40;;;;;;5020814;28;19920;-89
2021/12/28 05:45:23;;;;;;;;;;;12.50;97.50;;;;;;5033605;28;19909;-89
2021/12/28 05:47:50;;;;;;;;;;;12.50;97.50;;;;;;5025282;28;19950;-88
2021/12/28 05:50:17;;;;;;;;;;;12.50;97.50;;;;;;5040220;28;19919;-88
2021/12/28 05:52:44;;;;;;;;;;;12.40;97.40;;;;;;5045394;28;19913;-88
2021/12/28 05:55:11;;;;;;;;;;;12.40;97.40;;;;;;5033013;28;19923;-87
2021/12/28 05:57:38;;;;;;;;;;;12.40;97.30;;;;;;5026106;28;19927;-87
2021/12/28 06:00:06;;;;;;;;;;;12.40;97.30;;;;;;5024464;28;20423;-88
2021/12/28 06:02:33;;;;;;;;;;;12.40;97.30;;;;;;5012348;28;20111;-88
2021/12/28 06:04:59;;;;;;;;;;;12.40;97.30;;;;;;5024062;28;19919;-88
2021/12/28 06:07:27;;;;;;;;;;;12.40;97.40;;;;;;5032905;28;20475;-88
2021/12/28 06:09:55;;;;;;;;;;;12.40;97.40;;;;;;5027688;28;19935;-89
2021/12/28 06:12:22;;;;;;;;;;;12.40;97.40;;;;;;5047684;28;19937;-88
2021/12/28 06:14:50;;;;;;;;;;;12.40;97.40;;;;;;5020074;28;20277;-88
2021/12/28 06:17:17;;;;;;;;;;;12.40;97.40;;;;;;5022891;28;19927;-88
2021/12/28 06:19:44;;;;;;;;;;;12.40;97.40;;;;;;5026794;28;19924;-88
2021/12/28 06:22:10;;;;;;;;;;;12.40;97.30;;;;;;5019562;28;20397;-88
2021/12/28 06:24:37;;;;;;;;;;;12.40;97.10;;;;;;4998816;28;19930;-88
2021/12/28 06:27:04;;;;;;;;;;;12.30;97.20;;;;;;5036645;28;19916;-88
2021/12/28 06:29:31;;;;;;;;;;;12.30;97.10;;;;;;5011887;28;19921;-88
2021/12/28 06:31:58;;;;;;;;;;;12.30;97.30;;;;;;5031674;28;19909;-90
2021/12/28 06:34:25;;;;;;;;;;;12.30;97.20;;;;;;5021851;28;20609;-89
2021/12/28 06:36:52;;;;;;;;;;;12.30;97.30;;;;;;5025799;28;19920;-88
2021/12/28 06:39:19;;;;;;;;;;;12.30;97.30;;;;;;5024143;28;19913;-89
2021/12/28 06:41:45;;;;;;;;;;;12.30;97.30;;;;;;5030093;28;19913;-90
2021/12/28 06:44:12;;;;;;;;;;;12.30;97.20;;;;;;5029377;28;19935;-88
2021/12/28 06:46:39;;;;;;;;;;;12.30;97.20;;;;;;5031465;28;20502;-88
2021/12/28 06:49:06;;;;;;;;;;;12.20;97.20;;;;;;5027212;28;20427;-89
2021/12/28 06:51:33;;;;;;;;;;;12.20;97.40;;;;;;5048305;28;20223;-89
2021/12/28 06:54:00;;;;;;;;;;;12.20;97.30;;;;;;5023808;28;20274;-88
2021/12/28 06:56:27;;;;;;;;;;;12.20;97.40;;;;;;5023106;28;19962;-89
2021/12/28 06:58:53;;;;;;;;;;;12.20;97.30;;;;;;5036507;28;20279;-88
2021/12/28 07:01:22;;;;;;;;;;;12.20;97.30;;;;;;5021116;28;20120;-89
2021/12/28 07:03:50;;;;;;;;;;;12.20;97.40;;;;;;5033648;28;19936;-88
2021/12/28 07:06:17;;;;;;;;;;;12.20;97.40;;;;;;5019100;28;20160;-88
2021/12/28 07:08:44;;;;;;;;;;;12.20;97.40;;;;;;5024123;28;19921;-88
2021/12/28 07:11:11;;;;;;;;;;;12.20;97.40;;;;;;5032280;28;19920;-88
2021/12/28 07:13:38;;;;;;;;;;;12.20;97.40;;;;;;5025336;28;19917;-88
2021/12/28 07:16:05;;;;;;;;;;;12.20;97.50;;;;;;5024285;28;19919;-88
2021/12/28 07:18:32;;;;;;;;;;;12.20;97.40;;;;;;5026428;28;20094;-90
2021/12/28 07:21:00;;;;;;;;;;;12.20;97.50;;;;;;5030358;28;19927;-88
2021/12/28 07:23:27;;;;;;;;;;;12.20;97.40;;;;;;5022916;28;19921;-89
2021/12/28 07:25:54;;;;;;;;;;;12.20;97.40;;;;;;5035843;28;20251;-89
2021/12/28 07:28:21;;;;;;;;;;;12.20;97.40;;;;;;5024662;28;19917;-88
2021/12/28 07:30:49;;;;;;;;;;;12.20;97.40;;;;;;5038240;28;19916;-88
2021/12/28 07:33:15;;;;;;;;;;;12.20;97.40;;;;;;5010161;28;19927;-88
2021/12/28 07:35:42;;;;;;;;;;;12.20;97.40;;;;;;5021833;28;20429;-89
2021/12/28 07:38:09;;;;;;;;;;;12.20;97.40;;;;;;5029357;28;19921;-90
2021/12/28 07:40:36;;;;;;;;;;;12.20;97.50;;;;;;5018188;28;20014;-88
2021/12/28 07:43:03;;;;;;;;;;;12.30;97.50;;;;;;5047537;28;19917;-89
2021/12/28 07:45:30;;;;;;;;;;;12.20;97.50;;;;;;5019778;28;19917;-89
2021/12/28 07:47:57;;;;;;;;;;;12.30;97.50;;;;;;5017414;28;19924;-88
2021/12/28 07:50:24;;;;;;;;;;;12.30;97.50;;;;;;5024075;28;20581;-88
2021/12/28 07:52:52;;;;;;;;;;;12.30;97.50;;;;;;5035248;28;19913;-88
2021/12/28 07:55:19;;;;;;;;;;;12.30;97.50;;;;;;5021527;28;19927;-90
2021/12/28 07:57:45;;;;;;;;;;;12.30;97.40;;;;;;5031120;28;19913;-88
2021/12/28 08:00:14;;;;;;;;;;;12.30;97.60;;;;;;5017587;28;20391;-89
2021/12/28 08:02:43;;;;;;;;;;;12.30;97.60;;;;;;5039633;28;20109;-89
2021/12/28 08:05:11;;;;;;;;;;;12.30;97.50;;;;;;5040532;28;19916;-88
2021/12/28 08:07:38;;;;;;;;;;;12.40;97.60;;;;;;5015501;28;20220;-89
2021/12/28 08:10:05;;;;;;;;;;;12.30;97.60;;;;;;5030379;28;19917;-88
2021/12/28 08:12:32;;;;;;;;;;;12.30;97.60;;;;;;5013130;28;20061;-90
2021/12/28 08:14:59;;;;;;;;;;;12.40;97.70;;;;;;5005169;28;20404;-90
2021/12/28 08:17:28;;;;;;;;;;;12.40;97.70;;;;;;5034725;28;20324;-88
2021/12/28 08:19:55;;;;;;;;;;;12.40;97.70;;;;;;5021847;28;19920;-91
2021/12/28 08:22:22;;;;;;;;;;;12.40;97.70;;;;;;5021908;28;19921;-89
2021/12/28 08:24:49;;;;;;;;;;;12.40;97.60;;;;;;5025391;28;19916;-89
2021/12/28 08:27:16;;;;;;;;;;;12.40;97.70;;;;;;5016353;28;20136;-90
2021/12/28 08:29:43;;;;;;;;;;;12.50;97.80;;;;;;5028664;28;19931;-89
2021/12/28 08:32:09;;;;;;;;;;;12.50;97.70;;;;;;5016078;28;20386;-89
2021/12/28 08:34:36;;;;;;;;;;;12.50;97.70;;;;;;5013690;28;19939;-89
2021/12/28 08:37:04;;;;;;;;;;;12.50;97.70;;;;;;5029983;28;19921;-89
2021/12/28 08:39:30;;;;;;;;;;;12.50;97.70;;;;;;5022048;28;20098;-90
2021/12/28 08:41:57;;;;;;;;;;;12.50;97.70;;;;;;5037754;28;19932;-89
2021/12/28 08:44:27;;;;;;;;;;;12.50;97.60;;;;;;5021970;28;19913;-89
2021/12/28 08:46:55;;;;;;;;;;;12.60;97.60;;;;;;5018785;28;19913;-89
2021/12/28 08:49:23;;;;;;;;;;;12.60;97.60;;;;;;5014028;28;19921;-89
2021/12/28 08:51:50;;;;;;;;;;;12.60;97.60;;;;;;5050270;28;19913;-90
2021/12/28 08:54:16;;;;;;;;;;;12.60;97.50;;;;;;5009443;28;19912;-89
2021/12/28 08:56:44;;;;;;;;;;;12.60;97.60;;;;;;5021868;28;19921;-88
2021/12/28 08:59:11;;;;;;;;;;;12.60;97.50;;;;;;5030673;28;20289;-88
2021/12/28 09:01:38;;;;;;;;;;;12.60;97.60;;;;;;5025103;28;21048;-89
2021/12/28 09:04:05;;;;;;;;;;;12.70;97.70;;;;;;5016930;28;19919;-91
2021/12/28 09:06:32;;;;;;;;;;;12.70;97.60;;;;;;5022210;28;20103;-88
2021/12/28 09:08:59;;;;;;;;;;;12.70;97.60;;;;;;5011858;28;19917;-87
2021/12/28 09:11:26;;;;;;;;;;;12.70;97.40;;;;;;5021713;28;20088;-88
2021/12/28 09:13:53;;;;;;;;;;;12.70;97.60;;;;;;5025168;28;19945;-89
2021/12/28 09:16:20;;;;;;;;;;;12.70;97.60;;;;;;5008532;28;19917;-89
2021/12/28 09:18:47;;;;;;;;;;;12.70;97.50;;;;;;5020454;28;19913;-87
2021/12/28 09:21:14;;;;;;;;;;;12.70;97.20;;;;;;5021414;28;20304;-88
2021/12/28 09:23:41;;;;;;;;;;;12.70;97.30;;;;;;5025266;28;20113;-91
2021/12/28 09:26:08;;;;;;;;;;;12.80;97.20;;;;;;5015359;28;20349;-88
2021/12/28 09:28:34;;;;;;;;;;;12.80;97.30;;;;;;4962472;28;19926;-87
2021/12/28 09:31:01;;;;;;;;;;;12.80;97.10;;;;;;4996126;28;19918;-89
2021/12/28 09:33:28;;;;;;;;;;;12.80;97.10;;;;;;5003193;28;19918;-88
2021/12/28 09:35:55;;;;;;;;;;;12.80;96.70;;;;;;4996923;28;19922;-90
2021/12/28 09:38:22;;;;;;;;;;;12.80;96.90;;;;;;4976734;28;19913;-88
2021/12/28 09:40:50;;;;;;;;;;;12.80;96.90;;;;;;4994503;28;19914;-90
2021/12/28 09:43:17;;;;;;;;;;;12.90;97.10;;;;;;4979838;28;19922;-85
2021/12/28 09:45:44;;;;;;;;;;;12.90;97.10;;;;;;4995066;28;19915;-87
2021/12/28 09:48:12;;;;;;;;;;;12.90;96.50;;;;;;4989277;28;20293;-88
2021/12/28 09:50:39;;;;;;;;;;;13.00;96.90;;;;;;4971245;28;19921;-88
2021/12/28 09:53:07;;;;;;;;;;;13.00;97.00;;;;;;4985598;28;19913;-87
2021/12/28 09:55:34;;;;;;;;;;;13.00;97.10;;;;;;4979484;28;20717;-89
2021/12/28 09:58:01;;;;;;;;;;;13.10;97.10;;;;;;5001381;28;20374;-87
2021/12/28 10:00:29;;;;;;;;;;;13.10;97.00;;;;;;4995996;28;19913;-88
2021/12/28 10:02:55;;;;;;;;;;;13.10;96.50;;;;;;4985304;28;19914;-88
2021/12/28 10:05:24;;;;;;;;;;;13.10;96.90;;;;;;4990672;28;19922;-88
2021/12/28 10:07:54;;;;;;;;;;;13.10;96.40;;;;;;4969570;28;19922;-88
2021/12/28 10:10:21;;;;;;;;;;;13.10;96.40;;;;;;4976990;28;19927;-91
2021/12/28 10:12:52;;;;;;;;;;;13.10;96.40;;;;;;4988410;28;19914;-89
2021/12/28 10:15:21;;;;;;;;;;;13.20;96.50;;;;;;4976915;28;19914;-89
2021/12/28 10:17:50;;;;;;;;;;;13.20;96.40;;;;;;5015186;28;20395;-87
2021/12/28 10:20:19;;;;;;;;;;;13.20;96.80;;;;;;4981867;28;20153;-87
2021/12/28 10:22:48;;;;;;;;;;;13.20;96.80;;;;;;4974888;28;19920;-87
2021/12/28 10:25:35;;;;;;;;;;;13.20;96.60;;;;;;4965175;28;20334;-88
2021/12/28 10:28:02;;;;;;;;;;;13.20;96.60;;;;;;4989238;28;19920;-89
2021/12/28 10:30:43;;;;;;;;;;;13.20;96.30;;;;;;4984905;28;19922;-89
2021/12/28 10:33:11;;;;;;;;;;;13.20;96.40;;;;;;5013751;28;20371;-90
2021/12/28 10:35:40;;;;;;;;;;;13.20;96.60;;;;;;4999978;28;20388;-90
2021/12/28 10:38:10;;;;;;;;;;;13.20;96.50;;;;;;5001105;28;19921;-88
2021/12/28 10:40:47;;;;;;;;;;;13.20;96.60;;;;;;4973201;28;20370;-89
2021/12/28 10:43:16;;;;;;;;;;;13.20;96.70;;;;;;4983678;28;19922;-89
2021/12/28 10:45:48;;;;;;;;;;;13.20;96.40;;;;;;4985101;28;20412;-90
2021/12/28 10:48:16;;;;;;;;;;;13.20;96.30;;;;;;4970457;28;20099;-88
2021/12/28 10:50:43;;;;;;;;;;;13.10;96.10;;;;;;4986933;28;19921;-88
2021/12/28 10:53:18;;;;;;;;;;;13.10;96.10;;;;;;4969849;28;19913;-86
2021/12/28 10:55:47;;;;;;;;;;;13.10;96.10;;;;;;4989277;28;19913;-88
2021/12/28 10:58:25;;;;;;;;;;;13.10;95.50;;;;;;4981243;28;20024;-87
2021/12/28 11:00:53;;;;;;;;;;;13.00;95.00;;;;;;4968865;28;19940;-89
2021/12/28 11:03:23;;;;;;;;;;;13.00;95.00;;;;;;4991300;28;19914;-88
2021/12/28 11:05:51;;;;;;;;;;;13.00;95.40;;;;;;4992869;28;19921;-88
2021/12/28 11:08:18;;;;;;;;;;;12.90;95.30;;;;;;4969301;28;20742;-87
2021/12/28 11:10:50;;;;;;;;;;;12.90;95.00;;;;;;4970368;28;19921;-87
2021/12/28 11:13:21;;;;;;;;;;;12.90;94.40;;;;;;4977802;28;19921;-88
2021/12/28 11:15:48;;;;;;;;;;;13.00;94.50;;;;;;4969654;28;19923;-88
2021/12/28 11:18:30;;;;;;;;;;;13.00;94.10;;;;;;4967211;28;19918;-89
2021/12/28 11:20:58;;;;;;;;;;;13.00;93.50;;;;;;4957872;28;19917;-87
2021/12/28 11:23:27;;;;;;;;;;;13.00;94.00;;;;;;4964296;28;19928;-88
2021/12/28 11:26:02;;;;;;;;;;;13.00;93.70;;;;;;4967873;28;19927;-87
2021/12/28 11:28:31;;;;;;;;;;;13.00;92.70;;;;;;4979902;28;19918;-89
2021/12/28 11:31:00;;;;;;;;;;;13.00;93.70;;;;;;4973712;28;19918;-89
2021/12/28 11:33:27;;;;;;;;;;;13.00;91.70;;;;;;4972488;28;20095;-88
2021/12/28 11:35:54;;;;;;;;;;;13.00;92.80;;;;;;4994812;28;20259;-88
2021/12/28 11:38:21;;;;;;;;;;;13.00;92.30;;;;;;4983331;28;20588;-88
2021/12/28 11:40:48;;;;;;;;;;;13.00;91.40;;;;;;4988596;28;20001;-89
2021/12/28 11:43:15;;;;;;;;;;;13.00;92.40;;;;;;4982190;28;20555;-87
2021/12/28 11:45:43;;;;;;;;;;;13.00;91.80;;;;;;4993237;28;19913;-87
2021/12/28 11:48:10;;;;;;;;;;;13.10;91.80;;;;;;4979198;28;19921;-89
2021/12/28 11:50:37;;;;;;;;;;;13.10;91.40;;;;;;4994221;28;20390;-88
2021/12/28 11:53:04;;;;;;;;;;;13.10;91.60;;;;;;4999511;28;20000;-86
2021/12/28 11:55:31;;;;;;;;;;;13.20;92.00;;;;;;4981454;28;20009;-89
2021/12/28 11:57:57;;;;;;;;;;;13.20;90.20;;;;;;4970445;28;19918;-89
2021/12/28 12:00:24;;;;;;;;;;;13.40;91.60;;;;;;4979816;28;23494;-86
2021/12/28 12:02:53;;;;;;;;;;;13.50;92.50;;;;;;4982875;28;19918;-89
2021/12/28 12:05:27;;;;;;;;;;;13.60;91.60;;;;;;4984030;28;19916;-88
2021/12/28 12:08:05;;;;;;;;;;;13.70;91.90;;;;;;4988964;28;19918;-88
2021/12/28 12:10:35;;;;;;;;;;;13.80;91.10;;;;;;4984090;28;19925;-86
2021/12/28 12:13:12;;;;;;;;;;;13.90;90.70;;;;;;4973299;28;19924;-87
2021/12/28 12:15:44;;;;;;;;;;;14.10;91.00;;;;;;5010331;28;19919;-87
2021/12/28 12:18:12;;;;;;;;;;;14.10;91.60;;;;;;4967853;28;22420;-87
2021/12/28 12:20:45;;;;;;;;;;;14.10;90.00;;;;;;4983707;28;20260;-87
2021/12/28 12:23:13;;;;;;;;;;;14.10;90.00;;;;;;4995346;28;20015;-86
2021/12/28 12:25:50;;;;;;;;;;;14.00;90.70;;;;;;4996414;28;20440;-88
2021/12/28 12:28:24;;;;;;;;;;;14.00;90.60;;;;;;4984205;28;20257;-88
2021/12/28 12:30:52;;;;;;;;;;;13.90;89.70;;;;;;4992518;28;20414;-88
2021/12/28 12:33:20;;;;;;;;;;;13.90;90.30;;;;;;4968389;28;20153;-88
2021/12/28 12:35:50;;;;;;;;;;;13.90;91.10;;;;;;4989327;28;19918;-86
2021/12/28 12:38:17;;;;;;;;;;;14.00;91.80;;;;;;4996759;28;20453;-86
2021/12/28 12:40:51;;;;;;;;;;;14.20;92.40;;;;;;4990368;28;19940;-87
2021/12/28 12:43:18;;;;;;;;;;;14.30;92.10;;;;;;4973349;28;20127;-86
2021/12/28 12:45:51;;;;;;;;;;;14.40;93.10;;;;;;4979749;28;19920;-87
2021/12/28 12:48:36;;;;;;;;;;;14.50;92.30;;;;;;4972560;28;19921;-87
2021/12/28 12:51:24;;;;;;;;;;;14.60;90.70;;;;;;4998610;28;19917;-85
2021/12/28 12:53:53;;;;;;;;;;;14.60;91.30;;;;;;5009976;28;19918;-89
2021/12/28 12:56:21;;;;;;;;;;;14.50;85.50;;;;;;4994946;28;20060;-87
2021/12/28 12:58:50;;;;;;;;;;;14.40;88.30;;;;;;4986565;28;19913;-88
2021/12/28 13:01:37;;;;;;;;;;;14.30;88.50;;;;;;4981641;28;20118;-88
2021/12/28 13:04:28;;;;;;;;;;;14.10;87.40;;;;;;4972907;28;19914;-88
2021/12/28 13:07:03;;;;;;;;;;;13.90;88.60;;;;;;4999291;28;19919;-88
2021/12/28 13:09:34;;;;;;;;;;;13.70;89.10;;;;;;4998066;28;19920;-88
2021/12/28 13:12:02;;;;;;;;;;;13.50;89.60;;;;;;5003152;28;19924;-88
2021/12/28 13:14:29;;;;;;;;;;;13.20;90.50;;;;;;4985937;28;20362;-90
2021/12/28 13:16:57;;;;;;;;;;;13.10;91.10;;;;;;4979925;28;19914;-89
2021/12/28 13:19:24;;;;;;;;;;;12.90;91.00;;;;;;4977506;28;19957;-90
2021/12/28 13:21:59;;;;;;;;;;;12.80;91.20;;;;;;4977213;28;19923;-89
2021/12/28 13:24:26;;;;;;;;;;;12.60;91.50;;;;;;4995873;28;19917;-89
2021/12/28 13:26:57;;;;;;;;;;;12.40;91.80;;;;;;4992495;28;20302;-89
2021/12/28 13:29:24;;;;;;;;;;;12.30;91.90;;;;;;4994273;28;20308;-89
2021/12/28 13:31:52;;;;;;;;;;;12.10;92.00;;;;;;4979471;28;19933;-90
2021/12/28 13:34:19;;;;;;;;;;;12.00;92.20;;;;;;4979056;28;20252;-90
2021/12/28 13:36:49;;;;;;;;;;;11.90;92.20;;;;;;5004564;28;19920;-90
2021/12/28 13:39:17;;;;;;;;;;;11.80;92.30;;;;;;4999686;28;19914;-90
2021/12/28 13:41:50;;;;;;;;;;;11.70;92.40;;;;;;5013415;28;19914;-89
2021/12/28 13:44:17;;;;;;;;;;;11.60;92.50;;;;;;4998626;28;19955;-91
2021/12/28 13:46:44;;;;;;;;;;;11.50;92.60;;;;;;4971776;28;19914;-90
2021/12/28 13:49:14;;;;;;;;;;;11.30;92.70;;;;;;4987602;28;20165;-90
2021/12/28 13:51:41;;;;;;;;;;;11.20;92.90;;;;;;4993991;28;19917;-90
2021/12/28 13:54:08;;;;;;;;;;;11.10;93.20;;;;;;4975382;28;20121;-90
2021/12/28 13:56:42;;;;;;;;;;;11.10;93.40;;;;;;4991593;28;20297;-91
2021/12/28 13:59:10;;;;;;;;;;;11.00;93.60;;;;;;4975678;28;20317;-91
2021/12/28 14:01:39;;;;;;;;;;;11.00;93.80;;;;;;4984564;28;19920;-90
2021/12/28 14:04:24;;;;;;;;;;;10.90;94.00;;;;;;4954834;28;20012;-90
2021/12/28 14:06:52;;;;;;;;;;;10.90;94.20;;;;;;4986032;28;20434;-90
2021/12/28 14:09:24;;;;;;;;;;;10.90;94.50;;;;;;4986076;28;19932;-90
2021/12/28 14:11:53;;;;;;;;;;;10.90;95.00;;;;;;4995307;28;19921;-90
2021/12/28 14:14:21;;;;;;;;;;;10.90;94.80;;;;;;5001087;28;20133;-91
2021/12/28 14:17:00;;;;;;;;;;;11.00;95.00;;;;;;4977064;28;19914;-89
2021/12/28 14:19:28;;;;;;;;;;;11.00;95.10;;;;;;4979993;28;19924;-89
2021/12/28 14:21:55;;;;;;;;;;;11.00;95.20;;;;;;4969312;28;19914;-89